createdAt,value
2022-08-10T00:02:12.649Z,99.90
2022-08-10T00:04:39.325Z,99.90
2022-08-10T00:07:05.993Z,99.90
2022-08-10T00:09:32.665Z,99.90
2022-08-10T00:12:19.335Z,99.90
2022-08-10T00:14:46.169Z,99.90
2022-08-10T00:17:12.850Z,99.90
2022-08-10T00:20:03.630Z,99.90
2022-08-10T00:22:26.547Z,99.90
2022-08-10T00:24:57.269Z,99.90
2022-08-10T00:27:57.859Z,99.90
2022-08-10T00:30:12.113Z,99.90
2022-08-10T00:32:38.750Z,99.90
2022-08-10T00:35:06.313Z,99.90
2022-08-10T00:37:32.914Z,99.90
2022-08-10T00:39:59.647Z,99.90
2022-08-10T00:42:26.485Z,99.90
2022-08-10T00:44:53.610Z,99.90
2022-08-10T00:47:36.192Z,99.90
2022-08-10T00:50:06.707Z,99.90
2022-08-10T00:52:35.231Z,99.90
2022-08-10T00:55:04.235Z,99.90
2022-08-10T00:57:30.985Z,99.90
2022-08-10T01:00:00.107Z,99.90
2022-08-10T01:02:29.786Z,99.90
2022-08-10T01:05:00.279Z,99.90
2022-08-10T01:07:41.923Z,99.90
2022-08-10T01:10:28.321Z,99.90
2022-08-10T01:13:06.785Z,99.90
2022-08-10T01:15:51.480Z,99.90
2022-08-10T01:18:56.600Z,99.90
2022-08-10T01:21:59.189Z,99.90
2022-08-10T01:24:34.766Z,99.90
2022-08-10T01:27:27.468Z,99.90
2022-08-10T01:30:02.869Z,99.90
2022-08-10T01:32:41.286Z,99.90
2022-08-10T01:35:10.895Z,99.90
2022-08-10T01:37:43.738Z,99.90
2022-08-10T01:40:24.947Z,99.90
2022-08-10T01:42:54.261Z,99.90
2022-08-10T01:45:24.234Z,99.90
2022-08-10T01:48:16.508Z,99.90
2022-08-10T01:50:59.652Z,99.90
2022-08-10T01:53:53.596Z,99.90
2022-08-10T01:56:23.441Z,99.90
2022-08-10T01:58:54.451Z,99.90
2022-08-10T02:01:25.417Z,99.90
2022-08-10T02:04:03.830Z,99.90
2022-08-10T02:06:36.938Z,99.90
2022-08-10T02:09:07.104Z,99.90
2022-08-10T02:11:57.561Z,99.90
2022-08-10T02:14:33.590Z,99.90
2022-08-10T02:17:07.669Z,99.90
2022-08-10T02:19:38.392Z,99.90
2022-08-10T02:22:36.276Z,99.90
2022-08-10T02:24:55.964Z,99.90
2022-08-10T02:27:24.851Z,99.90
2022-08-10T02:29:53.658Z,99.90
2022-08-10T02:32:36.604Z,99.90
2022-08-10T02:35:13.942Z,99.90
2022-08-10T02:37:51.193Z,99.90
2022-08-10T02:45:12.911Z,99.90
2022-08-10T02:45:21.567Z,99.90
2022-08-10T02:46:09.756Z,99.90
2022-08-10T02:48:42.495Z,99.90
2022-08-10T02:51:16.027Z,99.90
2022-08-10T02:53:54.298Z,99.90
2022-08-10T02:56:36.523Z,99.90
2022-08-10T02:59:11.023Z,99.90
2022-08-10T03:01:42.765Z,99.90
2022-08-10T03:04:20.630Z,99.90
2022-08-10T03:07:12.949Z,99.90
2022-08-10T03:09:41.517Z,99.90
2022-08-10T03:12:16.781Z,99.90
2022-08-10T03:14:59.835Z,99.90
2022-08-10T03:17:28.196Z,99.90
2022-08-10T03:20:34.625Z,99.90
2022-08-10T03:22:45.152Z,99.90
2022-08-10T03:25:13.774Z,99.90
2022-08-10T03:27:42.580Z,99.90
2022-08-10T03:30:31.638Z,99.90
2022-08-10T03:32:57.449Z,99.90
2022-08-10T03:35:25.040Z,99.90
2022-08-10T03:37:51.851Z,99.90
2022-08-10T03:40:45.766Z,99.90
2022-08-10T03:43:20.402Z,99.90
2022-08-10T03:46:02.337Z,99.90
2022-08-10T03:48:44.602Z,99.90
2022-08-10T03:51:16.177Z,99.90
2022-08-10T03:54:02.716Z,99.90
2022-08-10T03:56:32.607Z,99.90
2022-08-10T03:59:00.612Z,99.90
2022-08-10T04:02:41.829Z,99.90
2022-08-10T04:04:19.221Z,99.90
2022-08-10T04:06:54.915Z,99.90
2022-08-10T04:09:23.841Z,99.90
2022-08-10T04:11:50.465Z,99.90
2022-08-10T04:14:44.950Z,99.90
2022-08-10T04:17:03.798Z,99.90
2022-08-10T04:19:38.180Z,99.90
2022-08-10T04:22:10.541Z,99.90
2022-08-10T04:24:39.466Z,99.90
2022-08-10T04:27:06.514Z,99.90
2022-08-10T04:29:33.584Z,99.90
2022-08-10T04:32:03.378Z,99.90
2022-08-10T04:34:34.270Z,99.90
2022-08-10T04:37:08.887Z,99.90
2022-08-10T04:39:36.423Z,99.90
2022-08-10T04:42:03.758Z,99.90
2022-08-10T04:44:30.891Z,99.90
2022-08-10T04:46:59.099Z,99.90
2022-08-10T04:49:56.569Z,99.90
2022-08-10T04:52:13.777Z,99.90
2022-08-10T04:54:40.440Z,99.90
2022-08-10T04:57:08.873Z,99.90
2022-08-10T04:59:35.723Z,99.90
2022-08-10T05:02:30.713Z,99.90
2022-08-10T05:04:49.070Z,99.90
2022-08-10T05:07:18.685Z,99.90
2022-08-10T05:10:00.955Z,99.90
2022-08-10T05:12:37.795Z,99.90
2022-08-10T05:15:06.434Z,99.90
2022-08-10T05:17:34.378Z,99.90
2022-08-10T05:20:03.804Z,99.90
2022-08-10T05:22:34.724Z,99.90
2022-08-10T05:25:01.428Z,99.90
2022-08-10T05:27:28.065Z,99.90
2022-08-10T05:30:01.167Z,99.90
2022-08-10T05:32:29.614Z,99.90
2022-08-10T05:34:56.259Z,99.90
2022-08-10T05:38:10.249Z,99.90
2022-08-10T05:40:11.429Z,99.90
2022-08-10T05:42:39.110Z,99.90
2022-08-10T05:45:06.305Z,99.90
2022-08-10T05:48:54.049Z,99.90
2022-08-10T05:50:23.652Z,99.90
2022-08-10T05:52:50.495Z,99.90
2022-08-10T05:55:17.173Z,99.90
2022-08-10T05:57:45.245Z,99.90
2022-08-10T06:00:37.065Z,99.90
2022-08-10T06:03:06.865Z,99.90
2022-08-10T06:05:38.983Z,99.90
2022-08-10T06:08:12.752Z,99.90
2022-08-10T06:10:59.758Z,99.90
2022-08-10T06:14:12.550Z,99.90
2022-08-10T06:16:38.532Z,99.90
2022-08-10T06:19:06.555Z,99.90
2022-08-10T06:21:34.744Z,99.90
2022-08-10T06:24:02.750Z,99.90
2022-08-10T06:26:29.679Z,99.90
2022-08-10T06:29:09.787Z,99.90
2022-08-10T06:31:48.548Z,99.90
2022-08-10T06:34:20.280Z,99.90
2022-08-10T06:36:47.786Z,99.90
2022-08-10T06:39:32.976Z,99.90
2022-08-10T06:42:16.127Z,99.90
2022-08-10T06:44:58.170Z,99.90
2022-08-10T06:47:49.366Z,99.90
2022-08-10T06:50:34.984Z,99.90
2022-08-10T06:53:18.026Z,99.90
2022-08-10T06:55:59.953Z,99.90
2022-08-10T06:58:34.013Z,99.90
2022-08-10T07:01:02.957Z,99.90
2022-08-10T07:03:38.813Z,99.90
2022-08-10T07:06:07.635Z,99.90
2022-08-10T07:08:36.698Z,99.90
2022-08-10T07:11:08.812Z,99.90
2022-08-10T07:14:16.770Z,99.90
2022-08-10T07:16:28.548Z,99.90
2022-08-10T07:18:57.709Z,99.90
2022-08-10T07:21:26.985Z,99.90
2022-08-10T07:24:00.070Z,99.90
2022-08-10T07:26:30.536Z,99.90
2022-08-10T07:28:58.213Z,99.90
2022-08-10T07:31:56.455Z,99.90
2022-08-10T07:34:28.626Z,99.90
2022-08-10T07:37:00.707Z,99.90
2022-08-10T07:40:02.061Z,99.90
2022-08-10T07:42:22.717Z,99.00
2022-08-10T07:44:53.310Z,98.50
2022-08-10T07:47:52.921Z,98.50
2022-08-10T07:50:17.749Z,98.50
2022-08-10T07:52:47.385Z,98.70
2022-08-10T07:55:18.326Z,98.80
2022-08-10T07:57:48.492Z,98.80
2022-08-10T08:00:16.635Z,98.60
2022-08-10T08:02:55.691Z,98.50
2022-08-10T08:05:38.607Z,98.60
2022-08-10T08:08:14.932Z,98.50
2022-08-10T08:10:42.656Z,97.80
2022-08-10T08:13:11.519Z,97.30
2022-08-10T08:16:18.488Z,97.00
2022-08-10T08:18:27.153Z,96.40
2022-08-10T08:20:54.669Z,96.30
2022-08-10T08:24:07.805Z,97.10
2022-08-10T08:26:11.769Z,96.10
2022-08-10T08:28:45.528Z,96.40
2022-08-10T08:31:14.399Z,96.20
2022-08-10T08:33:43.833Z,95.70
2022-08-10T08:36:11.475Z,95.00
2022-08-10T08:38:39.094Z,94.20
2022-08-10T08:41:33.709Z,94.30
2022-08-10T08:44:14.183Z,93.40
2022-08-10T08:48:01.979Z,93.90
2022-08-10T08:50:33.194Z,93.80
2022-08-10T08:53:21.989Z,93.10
2022-08-10T08:56:17.122Z,92.80
2022-08-10T08:59:21.190Z,92.30
2022-08-10T09:02:00.609Z,92.20
2022-08-10T09:04:54.161Z,91.90
2022-08-10T09:08:01.494Z,91.60
2022-08-10T09:10:45.289Z,91.20
2022-08-10T09:13:41.175Z,91.70
2022-08-10T09:16:38.034Z,91.10
2022-08-10T09:19:19.575Z,90.90
2022-08-10T09:22:17.183Z,90.90
2022-08-10T09:25:00.875Z,90.30
2022-08-10T09:27:40.631Z,89.70
2022-08-10T09:30:12.883Z,89.00
2022-08-10T09:36:15.121Z,89.60
2022-08-10T09:36:27.001Z,88.50
2022-08-10T09:40:48.545Z,89.10
2022-08-10T09:42:25.674Z,88.80
2022-08-10T09:45:31.800Z,88.60
2022-08-10T09:48:19.674Z,89.60
2022-08-10T09:51:44.935Z,87.60
2022-08-10T09:54:24.578Z,86.10
2022-08-10T09:57:24.451Z,85.80
2022-08-10T10:00:02.685Z,85.50
2022-08-10T10:02:52.358Z,86.00
2022-08-10T10:05:51.304Z,84.70
2022-08-10T10:08:21.881Z,84.30
2022-08-10T10:11:00.026Z,84.30
2022-08-10T10:14:03.524Z,83.80
2022-08-10T10:16:41.938Z,82.70
2022-08-10T10:19:40.672Z,82.50
2022-08-10T10:22:17.093Z,80.50
2022-08-10T10:24:52.543Z,79.00
2022-08-10T10:27:24.986Z,78.00
2022-08-10T10:30:11.162Z,76.80
2022-08-10T10:33:00.339Z,76.40
2022-08-10T10:35:37.574Z,75.90
2022-08-10T10:38:08.830Z,74.60
2022-08-10T10:40:55.634Z,75.10
2022-08-10T10:43:36.119Z,74.30
2022-08-10T10:46:36.782Z,73.20
2022-08-10T10:49:38.967Z,73.70
2022-08-10T10:52:23.825Z,73.00
2022-08-10T10:55:03.017Z,73.00
2022-08-10T10:57:58.179Z,72.10
2022-08-10T11:00:28.788Z,73.20
2022-08-10T11:03:36.224Z,72.30
2022-08-10T11:06:45.465Z,71.30
2022-08-10T11:10:07.862Z,70.50
2022-08-10T11:12:34.669Z,71.30
2022-08-10T11:15:42.898Z,70.80
2022-08-10T11:18:48.107Z,71.00
2022-08-10T11:21:43.590Z,70.20
2022-08-10T11:24:47.005Z,70.00
2022-08-10T11:27:44.453Z,69.60
2022-08-10T11:30:27.195Z,70.30
2022-08-10T11:33:32.368Z,69.30
2022-08-10T11:36:10.449Z,69.50
2022-08-10T11:39:14.357Z,68.30
2022-08-10T11:42:09.033Z,68.10
2022-08-10T11:44:59.801Z,66.80
2022-08-10T11:47:34.111Z,67.30
2022-08-10T11:50:27.617Z,66.50
2022-08-10T11:53:24.663Z,67.30
2022-08-10T11:55:58.631Z,65.10
2022-08-10T11:58:50.308Z,65.80
2022-08-10T12:01:21.516Z,65.00
2022-08-10T12:03:48.858Z,64.40
2022-08-10T12:06:53.769Z,63.60
2022-08-10T12:10:10.582Z,61.60
2022-08-10T12:11:59.904Z,62.40
2022-08-10T12:14:33.464Z,61.70
2022-08-10T12:17:07.887Z,61.30
2022-08-10T12:19:59.626Z,62.20
2022-08-10T12:22:51.597Z,60.90
2022-08-10T12:25:55.832Z,61.20
2022-08-10T12:28:22.973Z,59.90
2022-08-10T12:31:12.125Z,59.80
2022-08-10T12:34:01.867Z,60.40
2022-08-10T12:36:37.832Z,60.30
2022-08-10T12:39:10.495Z,61.00
2022-08-10T12:41:45.498Z,61.50
2022-08-10T12:44:19.120Z,61.80
2022-08-10T12:47:01.548Z,61.00
2022-08-10T12:50:29.473Z,60.80
2022-08-10T12:52:57.678Z,60.70
2022-08-10T12:55:27.614Z,60.30
2022-08-10T12:57:57.430Z,59.90
2022-08-10T13:00:33.547Z,61.00
2022-08-10T13:03:03.000Z,60.40
2022-08-10T13:06:00.375Z,59.40
2022-08-10T13:08:40.769Z,59.10
2022-08-10T13:12:34.196Z,60.80
2022-08-10T13:14:03.365Z,60.10
2022-08-10T13:16:32.439Z,60.60
2022-08-10T13:19:02.846Z,60.30
2022-08-10T13:21:33.306Z,59.80
2022-08-10T13:24:15.919Z,59.20
2022-08-10T13:27:26.134Z,59.20
2022-08-10T13:29:48.902Z,59.30
2022-08-10T13:32:27.064Z,59.40
2022-08-10T13:34:57.842Z,58.90
2022-08-10T13:37:27.403Z,59.20
2022-08-10T13:40:00.433Z,59.40
2022-08-10T13:42:35.735Z,59.40
2022-08-10T13:45:12.023Z,58.70
2022-08-10T13:47:48.692Z,59.30
2022-08-10T13:50:34.605Z,59.20
2022-08-10T13:53:03.769Z,59.30
2022-08-10T13:55:54.401Z,58.80
2022-08-10T13:58:28.719Z,58.00
2022-08-10T14:00:57.064Z,57.90
2022-08-10T14:03:25.624Z,58.10
2022-08-10T14:05:55.476Z,58.40
2022-08-10T14:08:26.368Z,58.10
2022-08-10T14:11:08.717Z,58.10
2022-08-10T14:13:45.370Z,58.20
2022-08-10T14:16:13.281Z,57.30
2022-08-10T14:18:44.592Z,57.60
2022-08-10T14:21:11.955Z,57.50
2022-08-10T14:23:52.438Z,57.30
2022-08-10T14:26:30.438Z,57.60
2022-08-10T14:29:06.896Z,57.10
2022-08-10T14:31:36.938Z,56.40
2022-08-10T14:34:08.519Z,56.50
2022-08-10T14:36:59.220Z,55.70
2022-08-10T14:39:34.547Z,56.50
2022-08-10T14:42:16.769Z,57.10
2022-08-10T14:44:56.810Z,57.30
2022-08-10T14:47:53.597Z,57.00
2022-08-10T14:50:32.622Z,56.80
2022-08-10T14:53:26.544Z,57.10
2022-08-10T14:56:01.054Z,55.50
2022-08-10T14:59:05.285Z,55.40
2022-08-10T15:02:00.563Z,55.80
2022-08-10T15:04:26.680Z,56.60
2022-08-10T15:07:04.117Z,56.60
2022-08-10T15:09:59.789Z,56.40
2022-08-10T15:12:36.731Z,56.00
2022-08-10T15:15:09.402Z,56.00
2022-08-10T15:17:43.502Z,56.20
2022-08-10T15:20:20.772Z,55.70
2022-08-10T15:22:51.533Z,56.20
2022-08-10T15:25:24.412Z,56.00
2022-08-10T15:28:13.931Z,56.40
2022-08-10T15:30:46.131Z,55.50
2022-08-10T15:34:02.556Z,56.10
2022-08-10T15:36:43.123Z,55.90
2022-08-10T15:40:20.970Z,55.70
2022-08-10T15:42:09.021Z,55.20
2022-08-10T15:44:43.165Z,56.10
2022-08-10T15:47:27.292Z,56.50
2022-08-10T15:50:40.815Z,55.50
2022-08-10T15:53:16.943Z,55.30
2022-08-10T15:55:56.943Z,55.40
2022-08-10T15:58:59.059Z,55.40
2022-08-10T16:02:12.813Z,55.20
2022-08-10T16:04:51.858Z,55.30
2022-08-10T16:07:52.968Z,55.40
2022-08-10T16:10:30.385Z,55.30
2022-08-10T16:13:01.375Z,55.80
2022-08-10T16:15:30.170Z,55.30
2022-08-10T16:18:14.244Z,55.60
2022-08-10T16:20:54.679Z,55.90
2022-08-10T16:23:34.934Z,55.50
2022-08-10T16:26:14.509Z,55.50
2022-08-10T16:28:48.482Z,55.70
2022-08-10T16:31:20.370Z,56.10
2022-08-10T16:33:55.130Z,55.80
2022-08-10T16:36:28.871Z,55.50
2022-08-10T16:38:56.522Z,55.90
2022-08-10T16:42:03.838Z,55.80
2022-08-10T16:44:17.410Z,56.10
2022-08-10T16:46:45.364Z,55.90
2022-08-10T16:49:17.892Z,55.60
2022-08-10T16:51:50.387Z,55.90
2022-08-10T16:54:26.869Z,55.50
2022-08-10T16:57:05.719Z,55.60
2022-08-10T16:59:40.516Z,55.60
2022-08-10T17:02:11.242Z,55.90
2022-08-10T17:04:42.799Z,55.90
2022-08-10T17:07:14.489Z,55.90
2022-08-10T17:09:50.383Z,56.00
2022-08-10T17:12:23.282Z,56.10
2022-08-10T17:15:09.852Z,56.20
2022-08-10T17:17:47.413Z,56.10
2022-08-10T17:20:32.141Z,56.90
2022-08-10T17:23:02.652Z,56.30
2022-08-10T17:25:45.882Z,56.60
2022-08-10T17:28:35.504Z,56.70
2022-08-10T17:31:18.920Z,56.90
2022-08-10T17:33:57.731Z,57.30
2022-08-10T17:36:29.673Z,57.50
2022-08-10T17:38:56.937Z,57.50
2022-08-10T17:41:26.650Z,57.20
2022-08-10T17:44:02.829Z,57.60
2022-08-10T17:46:38.411Z,57.60
2022-08-10T17:49:10.656Z,57.80
2022-08-10T17:51:39.302Z,57.90
2022-08-10T17:54:15.301Z,58.60
2022-08-10T17:56:42.486Z,58.40
2022-08-10T17:59:17.266Z,58.70
2022-08-10T18:02:01.696Z,58.90
2022-08-10T18:04:41.493Z,59.00
2022-08-10T18:07:10.517Z,59.20
2022-08-10T18:09:49.752Z,59.50
2022-08-10T18:12:27.758Z,59.40
2022-08-10T18:15:04.374Z,59.80
2022-08-10T18:17:39.504Z,60.00
2022-08-10T18:20:08.389Z,60.20
2022-08-10T18:22:39.568Z,60.40
2022-08-10T18:25:08.584Z,60.50
2022-08-10T18:28:00.591Z,60.70
2022-08-10T18:30:28.654Z,61.30
2022-08-10T18:33:00.146Z,61.60
2022-08-10T18:35:34.743Z,61.80
2022-08-10T18:38:03.973Z,62.10
2022-08-10T18:40:36.170Z,63.30
2022-08-10T18:44:05.720Z,62.70
2022-08-10T18:45:56.622Z,63.10
2022-08-10T18:48:32.916Z,63.60
2022-08-10T18:51:05.603Z,64.30
2022-08-10T18:53:50.524Z,64.80
2022-08-10T18:56:23.267Z,65.40
2022-08-10T18:59:15.126Z,66.00
2022-08-10T19:02:10.526Z,66.60
2022-08-10T19:04:49.076Z,67.20
2022-08-10T19:07:41.283Z,67.40
2022-08-10T19:10:35.954Z,68.00
2022-08-10T19:13:32.299Z,68.80
2022-08-10T19:16:35.425Z,69.10
2022-08-10T19:19:27.366Z,69.70
2022-08-10T19:22:26.697Z,70.00
2022-08-10T19:25:01.080Z,70.60
2022-08-10T19:27:52.642Z,70.70
2022-08-10T19:30:29.206Z,70.90
2022-08-10T19:33:21.900Z,71.30
2022-08-10T19:36:20.939Z,71.60
2022-08-10T19:39:08.992Z,71.60
2022-08-10T19:41:44.652Z,71.70
2022-08-10T19:44:52.038Z,71.90
2022-08-10T19:47:46.889Z,72.10
2022-08-10T19:50:15.433Z,72.50
2022-08-10T19:53:03.897Z,72.50
2022-08-10T19:55:37.123Z,72.90
2022-08-10T19:58:22.034Z,73.20
2022-08-10T20:01:02.111Z,73.20
2022-08-10T20:03:53.716Z,73.70
2022-08-10T20:06:34.983Z,74.00
2022-08-10T20:09:10.554Z,74.50
2022-08-10T20:12:03.785Z,74.70
2022-08-10T20:14:48.172Z,75.10
2022-08-10T20:17:51.762Z,75.50
2022-08-10T20:20:40.332Z,76.00
2022-08-10T20:23:16.385Z,76.30
2022-08-10T20:25:59.225Z,76.40
2022-08-10T20:28:42.523Z,76.70
2022-08-10T20:31:17.774Z,77.30
2022-08-10T20:34:01.531Z,77.40
2022-08-10T20:36:34.108Z,78.00
2022-08-10T20:39:15.801Z,78.20
2022-08-10T20:42:11.242Z,78.60
2022-08-10T20:44:44.183Z,79.10
2022-08-10T20:47:26.468Z,79.30
2022-08-10T20:50:05.739Z,79.60
2022-08-10T20:52:35.215Z,79.70
2022-08-10T20:55:08.737Z,80.00
2022-08-10T20:58:00.176Z,80.30
2022-08-10T21:00:45.550Z,80.60
2022-08-10T21:03:44.061Z,80.90
2022-08-10T21:06:43.405Z,81.30
2022-08-10T21:09:38.559Z,81.80
2022-08-10T21:12:20.162Z,82.10
2022-08-10T21:14:58.647Z,82.70
2022-08-10T21:17:47.000Z,82.80
2022-08-10T21:23:08.425Z,83.60
2022-08-10T21:25:41.617Z,83.40
2022-08-10T21:25:58.919Z,83.70
2022-08-10T21:28:44.755Z,84.10
2022-08-10T21:31:42.799Z,84.40
2022-08-10T21:34:19.186Z,84.70
2022-08-10T21:37:16.434Z,85.00
2022-08-10T21:40:04.693Z,85.20
2022-08-10T21:43:11.127Z,85.60
2022-08-10T21:46:16.242Z,85.80
2022-08-10T21:49:14.751Z,86.10
2022-08-10T21:52:23.156Z,86.80
2022-08-10T21:55:24.926Z,87.00
2022-08-10T21:58:38.227Z,87.90
2022-08-10T22:01:39.299Z,88.50
2022-08-10T22:04:26.073Z,89.00
2022-08-10T22:07:13.069Z,90.10
2022-08-10T22:10:04.468Z,90.20
2022-08-10T22:12:57.710Z,90.80
2022-08-10T22:16:09.674Z,91.10
2022-08-10T22:19:01.308Z,91.40
2022-08-10T22:22:19.773Z,91.80
2022-08-10T22:25:20.778Z,92.80
2022-08-10T22:28:17.567Z,93.50
2022-08-10T22:31:32.151Z,94.40
2022-08-10T22:34:40.050Z,95.00
2022-08-10T22:37:43.298Z,95.60
2022-08-10T22:40:34.221Z,95.70
2022-08-10T22:43:35.911Z,95.30
2022-08-10T22:46:38.607Z,95.30
2022-08-10T22:49:05.461Z,95.20
2022-08-10T22:51:56.145Z,96.50
2022-08-10T22:55:03.518Z,96.80
2022-08-10T22:57:48.880Z,97.50
2022-08-10T23:00:18.948Z,98.70
2022-08-10T23:03:23.422Z,99.40
2022-08-10T23:06:00.326Z,99.90
2022-08-10T23:08:49.357Z,99.90
2022-08-10T23:11:24.711Z,99.90
2022-08-10T23:13:59.731Z,99.90
2022-08-10T23:16:47.310Z,99.90
2022-08-10T23:19:23.742Z,99.90
2022-08-10T23:22:04.257Z,99.90
2022-08-10T23:24:44.837Z,99.90
2022-08-10T23:27:38.345Z,99.90
2022-08-10T23:30:10.530Z,99.90
2022-08-10T23:32:45.163Z,99.90
2022-08-10T23:36:05.571Z,99.90
2022-08-10T23:38:04.795Z,99.90
2022-08-10T23:40:32.990Z,99.90
2022-08-10T23:43:01.438Z,99.90
2022-08-10T23:45:29.461Z,99.90
2022-08-10T23:48:20.161Z,99.90
2022-08-10T23:50:59.253Z,99.90
2022-08-10T23:53:47.746Z,99.90
2022-08-10T23:56:18.384Z,99.90
2022-08-10T23:58:52.532Z,99.90
